createdAt,value
2019-03-11T00:00:12.326Z,13.26
2019-03-11T00:02:45.525Z,13.28
2019-03-11T00:05:17.191Z,13.37
2019-03-11T00:07:48.954Z,13.41
2019-03-11T00:10:20.615Z,13.38
2019-03-11T00:12:52.393Z,13.38
2019-03-11T00:15:24.038Z,13.33
2019-03-11T00:17:56.524Z,13.31
2019-03-11T00:20:28.143Z,13.30
2019-03-11T00:22:59.821Z,13.29
2019-03-11T00:25:31.595Z,13.29
2019-03-11T00:28:03.306Z,13.26
2019-03-11T00:30:35.021Z,13.23
2019-03-11T00:33:06.665Z,13.27
2019-03-11T00:35:38.325Z,13.33
2019-03-11T00:38:10.941Z,13.31
2019-03-11T00:40:42.770Z,13.31
2019-03-11T00:43:14.505Z,13.30
2019-03-11T00:45:46.304Z,13.33
2019-03-11T00:48:18.005Z,13.30
2019-03-11T00:50:49.735Z,13.30
2019-03-11T00:53:21.640Z,13.30
2019-03-11T00:55:53.349Z,13.26
2019-03-11T00:58:25.149Z,13.22
2019-03-11T01:00:56.902Z,13.29
2019-03-11T01:03:28.583Z,13.26
2019-03-11T01:06:00.346Z,13.27
2019-03-11T01:08:32.037Z,13.29
2019-03-11T01:11:03.818Z,13.26
2019-03-11T01:13:35.330Z,13.24
2019-03-11T01:16:07.123Z,13.18
2019-03-11T01:18:38.935Z,13.16
2019-03-11T01:21:10.565Z,13.19
2019-03-11T01:23:42.388Z,13.12
2019-03-11T01:26:14.097Z,13.12
2019-03-11T01:28:45.933Z,13.05
2019-03-11T01:31:17.597Z,13.04
2019-03-11T01:33:49.375Z,13.04
2019-03-11T01:36:21.033Z,13.04
2019-03-11T01:38:52.645Z,13.06
2019-03-11T01:41:24.313Z,13.09
2019-03-11T01:43:56.072Z,13.11
2019-03-11T01:46:27.775Z,13.12
2019-03-11T01:48:59.414Z,13.12
2019-03-11T01:51:31.112Z,13.17
2019-03-11T01:54:02.643Z,13.23
2019-03-11T01:56:34.409Z,13.33
2019-03-11T01:59:07.221Z,13.37
2019-03-11T02:01:39.044Z,13.45
2019-03-11T02:04:10.752Z,13.45
2019-03-11T02:06:42.456Z,13.48
2019-03-11T02:09:15.126Z,13.53
2019-03-11T02:11:46.808Z,13.51
2019-03-11T02:14:18.617Z,13.52
2019-03-11T02:16:50.469Z,13.53
2019-03-11T02:19:22.128Z,13.62
2019-03-11T02:21:53.825Z,13.70
2019-03-11T02:24:25.558Z,13.68
2019-03-11T02:26:57.269Z,13.75
2019-03-11T02:29:28.941Z,13.77
2019-03-11T02:32:00.626Z,13.75
2019-03-11T02:34:32.410Z,13.80
2019-03-11T02:37:04.218Z,13.84
2019-03-11T02:39:35.881Z,13.80
2019-03-11T02:42:07.720Z,13.88
2019-03-11T02:44:39.347Z,13.85
2019-03-11T02:47:11.055Z,13.80
2019-03-11T02:49:44.163Z,13.81
2019-03-11T02:52:16.195Z,13.75
2019-03-11T02:54:47.947Z,13.79
2019-03-11T02:57:19.830Z,13.68
2019-03-11T02:59:51.580Z,13.66
2019-03-11T03:02:50.789Z,13.55
2019-03-11T03:05:27.410Z,13.47
2019-03-11T03:08:01.926Z,13.41
2019-03-11T03:10:33.519Z,13.38
2019-03-11T03:13:05.144Z,13.32
2019-03-11T03:15:36.793Z,13.21
2019-03-11T03:18:08.454Z,13.14
2019-03-11T03:20:40.684Z,13.07
2019-03-11T03:23:12.352Z,12.92
2019-03-11T03:25:43.962Z,12.94
2019-03-11T03:28:15.795Z,12.94
2019-03-11T03:30:47.415Z,12.95
2019-03-11T03:33:19.123Z,12.90
2019-03-11T03:35:50.914Z,12.92
2019-03-11T03:38:30.368Z,12.95
2019-03-11T03:40:55.910Z,12.92
2019-03-11T03:43:27.521Z,12.89
2019-03-11T03:45:59.189Z,12.81
2019-03-11T03:48:31.155Z,12.84
2019-03-11T03:51:02.934Z,12.80
2019-03-11T03:53:34.844Z,12.78
2019-03-11T03:56:06.648Z,12.72
2019-03-11T03:58:38.276Z,12.77
2019-03-11T04:01:10.471Z,12.75
2019-03-11T04:03:42.078Z,12.74
2019-03-11T04:06:14.698Z,12.75
2019-03-11T04:08:47.994Z,12.75
2019-03-11T04:11:20.845Z,12.75
2019-03-11T04:13:52.651Z,12.67
2019-03-11T04:16:24.300Z,12.58
2019-03-11T04:18:57.692Z,12.55
2019-03-11T04:21:29.396Z,12.57
2019-03-11T04:24:01.094Z,12.56
2019-03-11T04:26:33.421Z,12.56
2019-03-11T04:29:05.138Z,12.50
2019-03-11T04:31:36.905Z,12.46
2019-03-11T04:34:08.505Z,12.38
2019-03-11T04:36:40.213Z,12.35
2019-03-11T04:39:11.864Z,12.42
2019-03-11T04:41:43.566Z,12.40
2019-03-11T04:44:15.321Z,12.37
2019-03-11T04:46:48.183Z,12.42
2019-03-11T04:49:19.802Z,12.54
2019-03-11T04:51:51.383Z,12.63
2019-03-11T04:54:22.963Z,12.73
2019-03-11T04:56:54.678Z,12.80
2019-03-11T04:59:26.447Z,12.79
2019-03-11T05:01:58.060Z,12.77
2019-03-11T05:04:29.672Z,12.79
2019-03-11T05:07:01.295Z,12.85
2019-03-11T05:09:33.102Z,12.86
2019-03-11T05:12:05.004Z,12.89
2019-03-11T05:14:36.774Z,12.90
2019-03-11T05:17:08.561Z,12.91
2019-03-11T05:19:40.578Z,12.92
2019-03-11T05:22:12.281Z,12.89
2019-03-11T05:24:43.912Z,12.87
2019-03-11T05:27:15.624Z,12.87
2019-03-11T05:29:47.284Z,12.82
2019-03-11T05:32:18.985Z,12.90
2019-03-11T05:34:51.092Z,12.95
2019-03-11T05:37:22.697Z,13.01
2019-03-11T05:39:54.237Z,12.90
2019-03-11T05:42:25.813Z,12.85
2019-03-11T05:44:57.672Z,12.86
2019-03-11T05:47:29.566Z,12.83
2019-03-11T05:50:01.332Z,12.82
2019-03-11T05:52:33.257Z,12.87
2019-03-11T05:55:05.027Z,12.93
2019-03-11T05:57:36.667Z,12.91
2019-03-11T06:00:11.261Z,13.05
2019-03-11T06:02:42.934Z,13.11
2019-03-11T06:05:14.919Z,13.16
2019-03-11T06:07:46.623Z,13.16
2019-03-11T06:10:19.186Z,13.21
2019-03-11T06:12:51.101Z,13.15
2019-03-11T06:15:27.479Z,13.15
2019-03-11T06:17:59.051Z,13.21
2019-03-11T06:20:44.969Z,13.18
2019-03-11T06:23:16.553Z,13.20
2019-03-11T06:25:48.624Z,13.28
2019-03-11T06:28:20.321Z,13.35
2019-03-11T06:30:52.679Z,13.54
2019-03-11T06:33:24.347Z,13.80
2019-03-11T06:35:56.266Z,14.04
2019-03-11T06:38:28.375Z,14.30
2019-03-11T06:41:00.423Z,14.50
2019-03-11T06:43:32.749Z,14.70
2019-03-11T06:46:04.685Z,14.90
2019-03-11T06:48:36.383Z,14.99
2019-03-11T06:51:08.055Z,15.08
2019-03-11T06:53:39.801Z,15.16
2019-03-11T06:56:11.571Z,15.22
2019-03-11T06:58:43.124Z,15.35
2019-03-11T07:01:14.987Z,15.52
2019-03-11T07:03:47.828Z,15.68
2019-03-11T07:06:19.664Z,15.71
2019-03-11T07:08:51.210Z,15.81
2019-03-11T07:11:22.983Z,15.94
2019-03-11T07:13:54.810Z,16.09
2019-03-11T07:16:26.515Z,16.15
2019-03-11T07:18:59.402Z,16.24
2019-03-11T07:21:31.086Z,16.27
2019-03-11T07:24:02.581Z,16.29
2019-03-11T07:26:34.258Z,16.41
2019-03-11T07:29:05.931Z,16.58
2019-03-11T07:31:37.774Z,16.65
2019-03-11T07:34:09.467Z,16.75
2019-03-11T07:36:41.191Z,16.92
2019-03-11T07:39:12.751Z,17.00
2019-03-11T07:41:44.391Z,17.17
2019-03-11T07:44:15.991Z,17.24
2019-03-11T07:46:47.721Z,17.26
2019-03-11T07:49:19.523Z,17.39
2019-03-11T07:51:51.203Z,17.60
2019-03-11T07:54:35.302Z,17.80
2019-03-11T07:56:57.752Z,17.98
2019-03-11T07:59:33.553Z,18.14
2019-03-11T08:02:05.115Z,18.13
2019-03-11T08:04:36.852Z,18.20
2019-03-11T08:07:08.628Z,18.27
2019-03-11T08:09:40.302Z,18.34
2019-03-11T08:12:11.891Z,18.42
2019-03-11T08:14:43.658Z,18.38
2019-03-11T08:17:15.458Z,18.51
2019-03-11T08:19:47.085Z,18.62
2019-03-11T08:22:18.634Z,18.72
2019-03-11T08:24:50.143Z,18.88
2019-03-11T08:27:21.789Z,18.96
2019-03-11T08:29:53.386Z,18.90
2019-03-11T08:32:25.013Z,18.59
2019-03-11T08:34:56.671Z,18.43
2019-03-11T08:37:28.204Z,18.20
2019-03-11T08:39:59.821Z,18.17
2019-03-11T08:42:31.516Z,18.12
2019-03-11T08:45:03.209Z,17.94
2019-03-11T08:47:34.937Z,17.63
2019-03-11T08:50:08.071Z,17.59
2019-03-11T08:52:39.525Z,17.62
2019-03-11T08:55:11.955Z,17.88
2019-03-11T08:57:43.668Z,18.31
2019-03-11T09:00:15.666Z,18.66
2019-03-11T09:02:47.401Z,18.54
2019-03-11T09:05:19.636Z,18.49
2019-03-11T09:07:51.396Z,18.79
2019-03-11T09:10:23.189Z,19.22
2019-03-11T09:12:54.816Z,19.56
2019-03-11T09:15:26.841Z,19.94
2019-03-11T09:17:58.421Z,20.29
2019-03-11T09:20:32.797Z,20.52
2019-03-11T09:23:04.516Z,20.73
2019-03-11T09:25:37.444Z,21.08
2019-03-11T09:28:09.111Z,21.36
2019-03-11T09:30:40.845Z,21.55
2019-03-11T09:33:13.083Z,21.53
2019-03-11T09:35:44.608Z,21.38
2019-03-11T09:38:16.416Z,21.37
2019-03-11T09:40:48.086Z,21.31
2019-03-11T09:43:19.874Z,21.30
2019-03-11T09:45:51.503Z,21.15
2019-03-11T09:48:23.332Z,20.98
2019-03-11T09:50:55.131Z,21.00
2019-03-11T09:53:26.858Z,21.21
2019-03-11T09:55:58.604Z,21.37
2019-03-11T09:58:31.444Z,21.48
2019-03-11T10:01:03.086Z,21.79
2019-03-11T10:03:34.750Z,21.73
2019-03-11T10:06:07.869Z,21.85
2019-03-11T10:08:39.512Z,22.28
2019-03-11T10:11:11.169Z,22.35
2019-03-11T10:13:42.825Z,22.45
2019-03-11T10:16:14.381Z,22.31
2019-03-11T10:18:46.450Z,22.48
2019-03-11T10:21:18.175Z,22.42
2019-03-11T10:23:49.918Z,22.76
2019-03-11T10:26:21.656Z,22.81
2019-03-11T10:28:53.336Z,22.86
2019-03-11T10:31:24.985Z,22.92
2019-03-11T10:33:56.739Z,22.92
2019-03-11T10:36:29.629Z,23.29
2019-03-11T10:39:01.507Z,23.56
2019-03-11T10:41:34.806Z,23.56
2019-03-11T10:44:06.657Z,23.27
2019-03-11T10:46:39.482Z,23.35
2019-03-11T10:49:13.641Z,23.12
2019-03-11T10:51:45.453Z,22.65
2019-03-11T10:54:17.181Z,22.22
2019-03-11T10:56:48.898Z,21.98
2019-03-11T10:59:20.648Z,21.81
2019-03-11T11:01:52.274Z,21.63
2019-03-11T11:04:24.024Z,21.36
2019-03-11T11:06:55.701Z,21.05
2019-03-11T11:09:27.273Z,20.84
2019-03-11T11:11:59.073Z,20.54
2019-03-11T11:14:30.729Z,20.76
2019-03-11T11:17:02.515Z,21.09
2019-03-11T11:19:35.293Z,21.45
2019-03-11T11:22:07.239Z,21.78
2019-03-11T11:24:38.935Z,21.72
2019-03-11T11:27:11.989Z,21.75
2019-03-11T11:29:43.689Z,21.49
2019-03-11T11:32:15.306Z,21.38
2019-03-11T11:34:47.103Z,21.18
2019-03-11T11:37:18.979Z,21.16
2019-03-11T11:39:51.151Z,21.39
2019-03-11T11:42:22.882Z,21.49
2019-03-11T11:44:54.622Z,21.34
2019-03-11T11:47:26.311Z,21.08
2019-03-11T11:49:58.194Z,20.97
2019-03-11T11:52:30.050Z,20.76
2019-03-11T11:55:02.039Z,20.51
2019-03-11T11:57:33.988Z,20.38
2019-03-11T12:00:07.175Z,20.37
2019-03-11T12:02:39.042Z,20.45
2019-03-11T12:05:12.300Z,20.21
2019-03-11T12:07:44.180Z,20.13
2019-03-11T12:10:17.253Z,19.97
2019-03-11T12:12:49.191Z,20.04
2019-03-11T12:15:21.205Z,20.18
2019-03-11T12:17:52.873Z,20.42
2019-03-11T12:20:25.050Z,20.56
2019-03-11T12:22:56.881Z,20.50
2019-03-11T12:25:28.789Z,20.48
2019-03-11T12:28:03.159Z,20.37
2019-03-11T12:30:35.068Z,20.42
2019-03-11T12:33:06.865Z,20.24
2019-03-11T12:35:38.651Z,20.05
2019-03-11T12:38:10.474Z,19.91
2019-03-11T12:40:42.205Z,19.94
2019-03-11T12:43:13.869Z,19.82
2019-03-11T12:45:45.695Z,19.76
2019-03-11T12:48:17.384Z,19.73
2019-03-11T12:50:49.125Z,19.61
2019-03-11T12:53:20.910Z,19.60
2019-03-11T12:55:52.700Z,19.58
2019-03-11T12:58:24.584Z,19.58
2019-03-11T13:00:56.401Z,19.22
2019-03-11T13:03:28.328Z,19.04
2019-03-11T13:06:00.177Z,19.01
2019-03-11T13:08:31.981Z,18.92
2019-03-11T13:11:05.212Z,18.91
2019-03-11T13:13:37.087Z,18.99
2019-03-11T13:16:08.818Z,18.94
2019-03-11T13:18:42.691Z,19.01
2019-03-11T13:21:17.794Z,18.98
2019-03-11T13:23:49.634Z,18.98
2019-03-11T13:26:21.343Z,19.03
2019-03-11T13:28:53.018Z,19.08
2019-03-11T13:31:24.801Z,19.04
2019-03-11T13:33:56.656Z,19.03
2019-03-11T13:36:28.429Z,19.02
2019-03-11T13:39:01.322Z,18.91
2019-03-11T13:41:34.596Z,18.84
2019-03-11T13:44:06.447Z,18.73
2019-03-11T13:46:38.117Z,18.61
2019-03-11T13:49:09.893Z,18.59
2019-03-11T13:51:42.614Z,18.55
2019-03-11T13:54:15.635Z,18.47
2019-03-11T13:56:47.264Z,18.54
2019-03-11T13:59:19.561Z,18.65
2019-03-11T14:01:51.221Z,18.57
2019-03-11T14:04:23.072Z,18.51
2019-03-11T14:06:54.866Z,18.60
2019-03-11T14:09:26.603Z,18.63
2019-03-11T14:11:59.625Z,18.58
2019-03-11T14:14:31.453Z,18.53
2019-03-11T14:17:03.192Z,18.45
2019-03-11T14:19:35.001Z,18.39
2019-03-11T14:22:06.728Z,18.30
2019-03-11T14:24:38.427Z,18.24
2019-03-11T14:27:10.216Z,18.11
2019-03-11T14:29:41.924Z,18.12
2019-03-11T14:32:14.562Z,17.96
2019-03-11T14:34:46.500Z,17.92
2019-03-11T14:37:18.129Z,17.92
2019-03-11T14:39:49.839Z,17.92
2019-03-11T14:42:21.508Z,17.85
2019-03-11T14:44:53.327Z,17.88
2019-03-11T14:47:26.526Z,17.86
2019-03-11T14:49:58.379Z,17.87
2019-03-11T14:52:29.977Z,17.86
2019-03-11T14:55:01.746Z,17.77
2019-03-11T14:57:34.873Z,17.67
2019-03-11T15:00:07.834Z,17.70
2019-03-11T15:02:39.557Z,17.62
2019-03-11T15:05:12.463Z,17.56
2019-03-11T15:07:44.176Z,17.44
2019-03-11T15:10:16.279Z,17.38
2019-03-11T15:12:48.505Z,17.31
2019-03-11T15:15:20.791Z,17.33
2019-03-11T15:17:52.519Z,17.37
2019-03-11T15:20:24.230Z,17.24
2019-03-11T15:23:05.992Z,17.18
2019-03-11T15:25:29.145Z,17.12
2019-03-11T15:28:00.923Z,17.08
2019-03-11T15:30:32.594Z,17.02
2019-03-11T15:33:04.236Z,17.02
2019-03-11T15:35:36.002Z,16.98
2019-03-11T15:38:07.573Z,16.87
2019-03-11T15:40:39.318Z,16.91
2019-03-11T15:43:10.977Z,16.80
2019-03-11T15:45:42.676Z,16.83
2019-03-11T15:48:14.696Z,16.80
2019-03-11T15:50:46.554Z,16.79
2019-03-11T15:53:18.572Z,16.73
2019-03-11T15:55:50.422Z,16.66
2019-03-11T15:58:22.269Z,16.62
2019-03-11T16:00:54.227Z,16.63
2019-03-11T16:03:35.925Z,16.59
2019-03-11T16:05:59.650Z,16.56
2019-03-11T16:08:31.333Z,16.48
2019-03-11T16:11:02.996Z,16.43
2019-03-11T16:13:34.707Z,16.42
2019-03-11T16:16:06.246Z,16.26
2019-03-11T16:18:37.968Z,16.25
2019-03-11T16:21:09.911Z,16.10
2019-03-11T16:23:41.532Z,16.07
2019-03-11T16:26:13.242Z,16.13
2019-03-11T16:28:48.277Z,16.11
2019-03-11T16:31:19.529Z,16.05
2019-03-11T16:33:51.258Z,16.07
2019-03-11T16:36:24.204Z,16.03
2019-03-11T16:38:55.833Z,16.02
2019-03-11T16:41:27.496Z,15.86
2019-03-11T16:43:59.256Z,15.90
2019-03-11T16:46:30.986Z,15.91
2019-03-11T16:49:02.580Z,15.96
2019-03-11T16:51:34.476Z,15.92
2019-03-11T16:54:05.998Z,15.98
2019-03-11T16:56:38.011Z,16.00
2019-03-11T16:59:09.946Z,15.96
2019-03-11T17:01:42.964Z,15.98
2019-03-11T17:04:14.891Z,15.96
2019-03-11T17:06:46.672Z,15.85
2019-03-11T17:09:18.376Z,15.70
2019-03-11T17:11:50.127Z,15.48
2019-03-11T17:14:21.891Z,15.17
2019-03-11T17:16:53.506Z,14.99
2019-03-11T17:19:25.207Z,14.93
2019-03-11T17:21:56.797Z,14.81
2019-03-11T17:24:28.512Z,14.69
2019-03-11T17:27:00.331Z,14.74
2019-03-11T17:29:32.004Z,14.73
2019-03-11T17:32:03.881Z,14.81
2019-03-11T17:34:35.800Z,14.70
2019-03-11T17:37:07.410Z,14.61
2019-03-11T17:39:39.123Z,14.50
2019-03-11T17:42:10.946Z,14.35
2019-03-11T17:44:42.599Z,14.46
2019-03-11T17:47:14.353Z,14.36
2019-03-11T17:49:46.143Z,14.33
2019-03-11T17:52:17.844Z,14.30
2019-03-11T17:54:50.865Z,14.30
2019-03-11T17:57:22.775Z,14.41
2019-03-11T17:59:54.596Z,14.36
2019-03-11T18:02:26.557Z,14.39
2019-03-11T18:04:59.516Z,14.35
2019-03-11T18:07:31.244Z,14.41
2019-03-11T18:10:02.992Z,14.32
2019-03-11T18:12:35.613Z,14.18
2019-03-11T18:15:07.582Z,14.25
2019-03-11T18:17:39.350Z,14.29
2019-03-11T18:20:12.247Z,14.45
2019-03-11T18:22:44.071Z,14.53
2019-03-11T18:25:16.822Z,14.52
2019-03-11T18:27:48.609Z,14.49
2019-03-11T18:30:21.071Z,14.61
2019-03-11T18:32:52.718Z,14.67
2019-03-11T18:35:24.273Z,14.73
2019-03-11T18:38:03.925Z,14.80
2019-03-11T18:40:30.543Z,14.86
2019-03-11T18:43:02.332Z,14.84
2019-03-11T18:45:33.989Z,14.75
2019-03-11T18:48:05.774Z,14.70
2019-03-11T18:50:37.709Z,14.67
2019-03-11T18:53:09.337Z,14.65
2019-03-11T18:55:41.092Z,14.71
2019-03-11T18:58:12.978Z,14.73
2019-03-11T19:00:44.780Z,14.74
2019-03-11T19:03:16.598Z,14.78
2019-03-11T19:05:48.194Z,14.83
2019-03-11T19:08:19.912Z,14.89
2019-03-11T19:10:51.524Z,14.85
2019-03-11T19:13:23.286Z,14.84
2019-03-11T19:15:55.993Z,14.86
2019-03-11T19:18:27.874Z,14.84
2019-03-11T19:21:01.586Z,14.85
2019-03-11T19:23:33.375Z,14.82
2019-03-11T19:26:05.276Z,14.83
2019-03-11T19:28:37.104Z,14.84
2019-03-11T19:31:08.933Z,14.85
2019-03-11T19:33:40.984Z,14.87
2019-03-11T19:36:12.720Z,14.87
2019-03-11T19:38:44.536Z,14.87
2019-03-11T19:41:16.212Z,14.86
2019-03-11T19:43:48.007Z,14.80
2019-03-11T19:46:19.891Z,14.84
2019-03-11T19:48:51.680Z,14.85
2019-03-11T19:51:25.927Z,14.84
2019-03-11T19:53:57.810Z,14.82
2019-03-11T19:56:29.682Z,14.78
2019-03-11T19:59:01.496Z,14.72
2019-03-11T20:01:33.445Z,14.68
2019-03-11T20:04:05.755Z,14.68
2019-03-11T20:06:37.663Z,14.67
2019-03-11T20:09:13.433Z,14.68
2019-03-11T20:11:45.966Z,14.66
2019-03-11T20:14:17.623Z,14.62
2019-03-11T20:16:51.048Z,14.64
2019-03-11T20:19:22.724Z,14.58
2019-03-11T20:21:54.468Z,14.54
2019-03-11T20:24:26.119Z,14.52
2019-03-11T20:26:59.309Z,14.49
2019-03-11T20:29:33.792Z,14.55
2019-03-11T20:32:04.561Z,14.54
2019-03-11T20:34:36.382Z,14.58
2019-03-11T20:37:07.925Z,14.54
2019-03-11T20:39:39.691Z,14.47
2019-03-11T20:42:12.581Z,14.48
2019-03-11T20:44:44.328Z,14.45
2019-03-11T20:47:15.928Z,14.44
2019-03-11T20:49:48.017Z,14.38
2019-03-11T20:52:20.053Z,14.40
2019-03-11T20:54:52.140Z,14.37
2019-03-11T20:57:24.056Z,14.39
2019-03-11T20:59:55.983Z,14.36
2019-03-11T21:02:28.568Z,14.38
2019-03-11T21:05:04.576Z,14.38
2019-03-11T21:07:36.553Z,14.39
2019-03-11T21:10:10.164Z,14.34
2019-03-11T21:12:42.235Z,14.33
2019-03-11T21:15:15.539Z,14.34
2019-03-11T21:17:47.294Z,14.38
2019-03-11T21:20:19.057Z,14.38
2019-03-11T21:22:50.862Z,14.36
2019-03-11T21:25:22.592Z,14.18
2019-03-11T21:27:54.894Z,13.94
2019-03-11T21:30:26.559Z,13.63
2019-03-11T21:32:58.247Z,13.50
2019-03-11T21:35:29.887Z,13.35
2019-03-11T21:38:01.510Z,13.33
2019-03-11T21:40:33.358Z,13.04
2019-03-11T21:43:05.121Z,12.71
2019-03-11T21:45:36.765Z,12.36
2019-03-11T21:48:08.656Z,11.99
2019-03-11T21:50:40.267Z,11.50
2019-03-11T21:53:11.938Z,11.17
2019-03-11T21:55:43.864Z,10.78
2019-03-11T21:58:15.645Z,10.43
2019-03-11T22:00:47.239Z,10.35
2019-03-11T22:03:18.906Z,10.29
2019-03-11T22:05:51.592Z,10.06
2019-03-11T22:08:23.299Z,9.94
2019-03-11T22:10:54.888Z,9.88
2019-03-11T22:13:26.574Z,9.82
2019-03-11T22:15:58.988Z,9.84
2019-03-11T22:18:30.710Z,9.85
2019-03-11T22:21:02.489Z,9.80
2019-03-11T22:23:34.120Z,9.73
2019-03-11T22:26:05.711Z,9.86
2019-03-11T22:28:37.280Z,9.59
2019-03-11T22:31:08.894Z,9.58
2019-03-11T22:33:40.483Z,9.40
2019-03-11T22:36:12.037Z,9.39
2019-03-11T22:38:43.669Z,9.32
2019-03-11T22:41:15.385Z,9.33
2019-03-11T22:43:47.062Z,9.39
2019-03-11T22:46:20.308Z,9.38
2019-03-11T22:48:52.143Z,9.43
2019-03-11T22:51:23.728Z,9.33
2019-03-11T22:53:55.321Z,9.16
2019-03-11T22:56:26.912Z,9.03
2019-03-11T22:58:58.685Z,9.08
2019-03-11T23:01:30.622Z,9.07
2019-03-11T23:04:02.423Z,9.13
2019-03-11T23:06:34.163Z,8.93
2019-03-11T23:09:06.749Z,9.00
2019-03-11T23:11:39.846Z,9.07
2019-03-11T23:14:11.712Z,8.99
2019-03-11T23:16:43.438Z,8.93
2019-03-11T23:19:15.061Z,8.86
2019-03-11T23:21:46.760Z,8.73
2019-03-11T23:24:18.383Z,8.60
2019-03-11T23:26:50.140Z,8.51
2019-03-11T23:29:21.812Z,8.45
2019-03-11T23:31:53.630Z,8.29
2019-03-11T23:34:26.419Z,8.20
2019-03-11T23:36:58.213Z,8.19
2019-03-11T23:39:29.933Z,8.18
2019-03-11T23:42:03.125Z,8.04
2019-03-11T23:44:34.803Z,7.89
2019-03-11T23:47:06.447Z,7.88
2019-03-11T23:49:38.637Z,7.76
2019-03-11T23:52:10.346Z,7.80
2019-03-11T23:54:42.199Z,7.69
2019-03-11T23:57:13.827Z,7.83
2019-03-11T23:59:45.444Z,7.75
